Archival Weather

Heathrow

London, United Kingdom (EGLL)

Report from: Friday, June 21, 2024 3:50 AM BST
Current time: Sunday, July 14, 2024 11:13 AM BST

Current weather – Weather history – Daily summaries
Weather forecast

Temperature12.0°C (53.6°F)
Dew point10.0°C (50.0°F)
Winds 1 kts (0.5 m/s, 1.2 mph) South-Southeast (150°)
Visibility6.2 mi. (10 km)
Clouds Sky clear
Altimeter30.00 in.Hg (1016 mB)
Relative humidity88 %
Density altitude-277 ft. (-84 m)
Remarks Fully automated report
No clouds detected
No significant changes expected in the next two hours
Flight conditions Visual Meteorological Conditions
Raw dataEGLL 210250Z AUTO 15001KT 9999 NCD 12/10 Q1016 NOSIG
An error has occurred. This application may no longer respond until reloaded. Reload 🗙